createdAt,value
2022-11-13T00:00:25.044Z,102612.03
2022-11-13T00:02:52.728Z,102600.44
2022-11-13T00:05:20.414Z,102608.69
2022-11-13T00:07:48.103Z,102601.44
2022-11-13T00:10:16.269Z,102594.19
2022-11-13T00:12:45.397Z,102605.16
2022-11-13T00:15:13.111Z,102600.78
2022-11-13T00:17:40.762Z,102590.03
2022-11-13T00:20:08.932Z,102598.94
2022-11-13T00:22:36.661Z,102594.38
2022-11-13T00:25:04.714Z,102596.25
2022-11-13T00:27:32.417Z,102589.19
2022-11-13T00:30:01.401Z,102590.22
2022-11-13T00:32:29.132Z,102586.69
2022-11-13T00:34:56.805Z,102587.69
2022-11-13T00:37:24.502Z,102578.78
2022-11-13T00:39:55.696Z,102579.63
2022-11-13T00:42:27.152Z,102572.38
2022-11-13T00:44:54.823Z,102569.03
2022-11-13T00:47:23.952Z,102570.91
2022-11-13T00:49:51.654Z,102560.50
2022-11-13T00:52:19.313Z,102562.34
2022-11-13T00:54:46.941Z,102559.84
2022-11-13T00:57:14.591Z,102567.91
2022-11-13T00:59:42.301Z,102557.16
2022-11-13T01:02:10.129Z,102550.94
2022-11-13T01:04:39.225Z,102553.81
2022-11-13T01:07:06.928Z,102558.34
2022-11-13T01:09:34.683Z,102562.06
2022-11-13T01:12:02.364Z,102555.03
2022-11-13T01:14:30.025Z,102558.72
2022-11-13T01:16:57.677Z,102555.19
2022-11-13T01:19:25.337Z,102550.00
2022-11-13T01:21:54.370Z,102555.56
2022-11-13T01:24:22.108Z,102545.47
2022-11-13T01:26:49.887Z,102539.44
2022-11-13T01:29:17.513Z,102539.44
2022-11-13T01:31:45.131Z,102538.78
2022-11-13T01:34:12.783Z,102539.78
2022-11-13T01:36:40.468Z,102546.84
2022-11-13T01:39:11.280Z,102547.03
2022-11-13T01:41:39.212Z,102545.34
2022-11-13T01:44:12.409Z,102547.22
2022-11-13T01:46:42.214Z,102537.84
2022-11-13T01:49:30.114Z,102533.28
2022-11-13T01:52:02.976Z,102540.53
2022-11-13T01:54:36.098Z,102526.25
2022-11-13T01:57:06.492Z,102517.53
2022-11-13T01:59:39.523Z,102514.00
2022-11-13T02:02:07.780Z,102513.34
2022-11-13T02:04:35.871Z,102492.09
2022-11-13T02:07:07.277Z,102517.88
2022-11-13T02:09:38.342Z,102511.66
2022-11-13T02:12:08.081Z,102507.31
2022-11-13T02:14:39.154Z,102499.22
2022-11-13T02:17:09.914Z,102499.59
2022-11-13T02:19:40.450Z,102495.25
2022-11-13T02:22:16.785Z,102491.72
2022-11-13T02:24:51.041Z,102489.88
2022-11-13T02:27:28.437Z,102495.25
2022-11-13T02:29:56.159Z,102490.03
2022-11-13T02:32:23.857Z,102486.53
2022-11-13T02:34:51.589Z,102481.13
2022-11-13T02:37:19.257Z,102484.84
2022-11-13T02:39:48.305Z,102476.97
2022-11-13T02:42:15.987Z,102478.81
2022-11-13T02:44:43.638Z,102484.19
2022-11-13T02:47:11.301Z,102486.06
2022-11-13T02:49:38.989Z,102470.94
2022-11-13T02:52:06.621Z,102464.72
2022-11-13T02:54:34.315Z,102467.59
2022-11-13T02:57:03.363Z,102471.31
2022-11-13T02:59:31.031Z,102476.69
2022-11-13T03:01:58.717Z,102477.69
2022-11-13T03:04:34.770Z,102471.31
2022-11-13T03:07:12.002Z,102467.97
2022-11-13T03:09:39.899Z,102468.97
2022-11-13T03:12:10.412Z,102467.13
2022-11-13T03:14:38.091Z,102462.75
2022-11-13T03:17:05.773Z,102455.72
2022-11-13T03:19:33.658Z,102453.22
2022-11-13T03:22:01.410Z,102449.69
2022-11-13T03:24:29.044Z,102450.69
2022-11-13T03:26:56.755Z,102452.75
2022-11-13T03:29:25.750Z,102450.88
2022-11-13T03:31:53.385Z,102437.72
2022-11-13T03:34:21.203Z,102454.59
2022-11-13T03:36:48.874Z,102451.91
2022-11-13T03:39:16.764Z,102452.09
2022-11-13T03:41:44.413Z,102441.16
2022-11-13T03:44:12.821Z,102443.19
2022-11-13T03:46:41.793Z,102437.81
2022-11-13T03:49:09.454Z,102436.97
2022-11-13T03:51:37.209Z,102434.28
2022-11-13T03:54:04.887Z,102427.41
2022-11-13T03:56:32.581Z,102433.63
2022-11-13T03:59:00.225Z,102428.25
2022-11-13T04:01:27.955Z,102428.44
2022-11-13T04:03:56.986Z,102429.94
2022-11-13T04:06:24.705Z,102430.09
2022-11-13T04:08:52.350Z,102422.03
2022-11-13T04:11:20.002Z,102424.09
2022-11-13T04:13:47.645Z,102418.69
2022-11-13T04:16:15.270Z,102420.75
2022-11-13T04:18:42.933Z,102412.84
2022-11-13T04:21:12.015Z,102414.53
2022-11-13T04:23:39.635Z,102406.66
2022-11-13T04:26:07.317Z,102404.78
2022-11-13T04:28:35.021Z,102402.09
2022-11-13T04:31:02.695Z,102400.25
2022-11-13T04:33:30.331Z,102402.28
2022-11-13T04:35:57.933Z,102396.06
2022-11-13T04:38:27.416Z,102397.09
2022-11-13T04:41:15.341Z,102385.69
2022-11-13T04:43:42.059Z,102389.41
2022-11-13T04:46:09.735Z,102389.41
2022-11-13T04:48:37.406Z,102386.88
2022-11-13T04:51:05.564Z,102382.34
2022-11-13T04:53:35.437Z,102391.25
2022-11-13T04:56:03.114Z,102386.06
2022-11-13T04:58:31.064Z,102382.72
2022-11-13T05:00:58.817Z,102377.53
2022-11-13T05:03:26.431Z,102381.03
2022-11-13T05:05:54.095Z,102382.06
2022-11-13T05:08:21.747Z,102382.91
2022-11-13T05:10:50.710Z,102381.22
2022-11-13T05:13:18.351Z,102384.09
2022-11-13T05:15:46.013Z,102374.19
2022-11-13T05:18:13.782Z,102369.81
2022-11-13T05:20:41.780Z,102369.00
2022-11-13T05:23:09.422Z,102361.13
2022-11-13T05:25:37.106Z,102362.97
2022-11-13T05:28:06.282Z,102363.81
2022-11-13T05:30:33.904Z,102354.25
2022-11-13T05:33:01.593Z,102362.31
2022-11-13T05:35:29.246Z,102352.59
2022-11-13T05:37:56.999Z,102357.97
2022-11-13T05:40:24.636Z,102358.13
2022-11-13T05:42:54.122Z,102353.78
2022-11-13T05:45:23.186Z,102353.78
2022-11-13T05:47:51.118Z,102353.13
2022-11-13T05:50:20.699Z,102348.59
2022-11-13T05:52:48.417Z,102361.19
2022-11-13T05:55:16.635Z,102350.81
2022-11-13T05:57:44.274Z,102348.97
2022-11-13T06:00:13.164Z,102356.38
2022-11-13T06:02:42.183Z,102353.69
2022-11-13T06:05:10.165Z,102356.38
2022-11-13T06:07:37.797Z,102348.31
2022-11-13T06:10:06.319Z,102341.81
2022-11-13T06:12:33.981Z,102341.00
2022-11-13T06:15:01.619Z,102343.31
2022-11-13T06:17:29.243Z,102337.63
2022-11-13T06:19:58.300Z,102334.47
2022-11-13T06:22:25.967Z,102340.19
2022-11-13T06:24:53.634Z,102339.31
2022-11-13T06:27:21.268Z,102328.69
2022-11-13T06:29:48.897Z,102324.97
2022-11-13T06:32:16.541Z,102327.59
2022-11-13T06:34:44.167Z,102331.81
2022-11-13T06:37:13.148Z,102317.38
2022-11-13T06:39:40.806Z,102313.97
2022-11-13T06:42:08.499Z,102317.78
2022-11-13T06:44:36.144Z,102317.50
2022-11-13T06:47:03.801Z,102320.50
2022-11-13T06:49:31.482Z,102328.28
2022-11-13T06:51:59.175Z,102329.69
2022-11-13T06:54:28.190Z,102319.47
2022-11-13T06:56:55.857Z,102320.03
2022-11-13T06:59:23.533Z,102322.28
2022-11-13T07:01:52.269Z,102313.75
2022-11-13T07:04:19.945Z,102314.75
2022-11-13T07:06:47.794Z,102317.16
2022-11-13T07:09:15.701Z,102321.06
2022-11-13T07:11:44.717Z,102320.59
2022-11-13T07:14:13.441Z,102322.00
2022-11-13T07:17:07.491Z,102321.16
2022-11-13T07:19:28.787Z,102317.00
2022-11-13T07:21:56.443Z,102318.22
2022-11-13T07:24:24.161Z,102312.84
2022-11-13T07:26:53.184Z,102310.53
2022-11-13T07:29:20.849Z,102299.97
2022-11-13T07:31:48.513Z,102305.50
2022-11-13T07:34:16.124Z,102303.19
2022-11-13T07:36:43.865Z,102299.31
2022-11-13T07:39:12.031Z,102302.00
2022-11-13T07:41:39.731Z,102310.88
2022-11-13T07:44:09.946Z,102310.25
2022-11-13T07:46:38.729Z,102305.06
2022-11-13T07:49:06.863Z,102299.84
2022-11-13T07:51:34.505Z,102298.38
2022-11-13T07:54:02.172Z,102297.53
2022-11-13T07:56:29.821Z,102294.84
2022-11-13T07:58:57.483Z,102293.19
2022-11-13T08:01:27.036Z,102298.56
2022-11-13T08:03:54.722Z,102292.34
2022-11-13T08:06:24.024Z,102286.78
2022-11-13T08:08:51.791Z,102282.44
2022-11-13T08:11:19.495Z,102294.16
2022-11-13T08:13:47.142Z,102292.50
2022-11-13T08:16:15.006Z,102289.34
2022-11-13T08:18:44.020Z,102292.69
2022-11-13T08:21:14.841Z,102295.38
2022-11-13T08:23:43.531Z,102287.31
2022-11-13T08:26:11.492Z,102276.38
2022-11-13T08:28:39.206Z,102271.84
2022-11-13T08:31:12.115Z,102273.53
2022-11-13T08:33:40.061Z,102272.69
2022-11-13T08:36:10.539Z,102270.84
2022-11-13T08:38:38.266Z,102265.81
2022-11-13T08:41:09.238Z,102281.25
2022-11-13T08:43:37.415Z,102280.41
2022-11-13T08:46:05.148Z,102283.56
2022-11-13T08:48:32.942Z,102280.69
2022-11-13T08:51:00.643Z,102276.31
2022-11-13T08:53:29.667Z,102273.28
2022-11-13T08:56:01.224Z,102270.59
2022-11-13T08:58:29.225Z,102266.03
2022-11-13T09:01:01.570Z,102269.38
2022-11-13T09:03:29.387Z,102261.31
2022-11-13T09:05:57.099Z,102264.84
2022-11-13T09:08:24.786Z,102270.22
2022-11-13T09:10:53.840Z,102265.13
2022-11-13T09:13:21.557Z,102267.94
2022-11-13T09:15:49.237Z,102256.53
2022-11-13T09:18:16.924Z,102254.19
2022-11-13T09:20:44.572Z,102255.66
2022-11-13T09:23:12.262Z,102254.78
2022-11-13T09:25:39.955Z,102245.63
2022-11-13T09:28:09.842Z,102247.09
2022-11-13T09:30:39.693Z,102241.06
2022-11-13T09:33:07.731Z,102243.50
2022-11-13T09:35:35.484Z,102250.47
2022-11-13T09:38:10.434Z,102251.06
2022-11-13T09:40:43.124Z,102246.63
2022-11-13T09:43:23.593Z,102249.06
2022-11-13T09:45:55.002Z,102247.97
2022-11-13T09:48:29.978Z,102248.34
2022-11-13T09:51:00.634Z,102251.03
2022-11-13T09:53:35.163Z,102254.72
2022-11-13T09:56:15.289Z,102251.41
2022-11-13T09:58:49.571Z,102248.06
2022-11-13T10:01:24.999Z,102252.81
2022-11-13T10:04:02.323Z,102245.75
2022-11-13T10:06:41.923Z,102244.91
2022-11-13T10:09:21.076Z,102243.06
2022-11-13T10:11:53.310Z,102248.44
2022-11-13T10:14:30.141Z,102244.91
2022-11-13T10:16:59.816Z,102236.03
2022-11-13T10:19:35.571Z,102240.38
2022-11-13T10:22:31.542Z,102240.38
2022-11-13T10:25:01.051Z,102239.16
2022-11-13T10:27:28.816Z,102239.16
2022-11-13T10:29:58.171Z,102237.31
2022-11-13T10:32:28.230Z,102222.56
2022-11-13T10:35:02.357Z,102230.72
2022-11-13T10:37:44.230Z,102221.63
2022-11-13T10:40:11.991Z,102223.28
2022-11-13T10:42:42.881Z,102215.03
2022-11-13T10:45:20.150Z,102214.84
2022-11-13T10:48:03.595Z,102214.47
2022-11-13T10:50:33.103Z,102204.34
2022-11-13T10:53:00.893Z,102196.91
2022-11-13T10:55:38.297Z,102201.09
2022-11-13T10:58:15.104Z,102200.69
2022-11-13T11:00:47.440Z,102188.09
2022-11-13T11:03:16.886Z,102183.34
2022-11-13T11:05:54.140Z,102186.28
2022-11-13T11:08:26.384Z,102180.06
2022-11-13T11:11:18.760Z,102166.88
2022-11-13T11:13:46.724Z,102171.03
2022-11-13T11:16:21.161Z,102163.59
2022-11-13T11:18:54.805Z,102164.06
2022-11-13T11:21:26.858Z,102172.97
2022-11-13T11:23:58.939Z,102173.41
2022-11-13T11:26:32.329Z,102163.28
2022-11-13T11:29:14.515Z,102164.75
2022-11-13T11:31:52.141Z,102160.84
2022-11-13T11:34:24.960Z,102169.34
2022-11-13T11:37:00.127Z,102160.91
2022-11-13T11:39:33.192Z,102154.09
2022-11-13T11:42:12.054Z,102154.72
2022-11-13T11:44:49.588Z,102146.25
2022-11-13T11:47:19.409Z,102139.84
2022-11-13T11:49:47.362Z,102127.84
2022-11-13T11:52:30.518Z,102127.47
2022-11-13T11:55:11.151Z,102112.94
2022-11-13T11:57:50.671Z,102127.69
2022-11-13T12:00:20.182Z,102118.41
2022-11-13T12:03:05.569Z,102109.09
2022-11-13T12:05:45.049Z,102109.72
2022-11-13T12:08:25.130Z,102103.31
2022-11-13T12:11:01.038Z,102099.38
2022-11-13T12:13:31.415Z,102087.59
2022-11-13T12:16:06.046Z,102094.44
2022-11-13T12:18:45.133Z,102089.69
2022-11-13T12:21:25.115Z,102077.06
2022-11-13T12:24:10.405Z,102076.47
2022-11-13T12:26:47.420Z,102077.31
2022-11-13T12:29:31.886Z,102071.53
2022-11-13T12:32:08.959Z,102064.28
2022-11-13T12:34:44.533Z,102063.88
2022-11-13T12:37:16.313Z,102052.69
2022-11-13T12:39:52.453Z,102051.47
2022-11-13T12:42:29.139Z,102049.59
2022-11-13T12:45:06.904Z,102050.03
2022-11-13T12:47:35.947Z,102041.53
2022-11-13T12:50:07.833Z,102039.69
2022-11-13T12:52:35.492Z,102033.06
2022-11-13T12:55:09.277Z,102029.94
2022-11-13T12:57:48.150Z,102023.53
2022-11-13T13:00:26.586Z,102018.78
2022-11-13T13:03:08.962Z,102013.78
2022-11-13T13:05:59.781Z,102007.97
2022-11-13T13:08:47.678Z,102006.75
2022-11-13T13:11:23.189Z,102005.50
2022-11-13T13:14:02.846Z,102001.56
2022-11-13T13:16:31.242Z,101989.53
2022-11-13T13:19:23.611Z,101985.19
2022-11-13T13:21:52.872Z,101985.63
2022-11-13T13:24:30.906Z,101972.75
2022-11-13T13:26:58.710Z,101965.28
2022-11-13T13:29:27.504Z,101965.09
2022-11-13T13:32:10.059Z,101952.44
2022-11-13T13:34:51.046Z,101953.69
2022-11-13T13:37:31.425Z,101945.81
2022-11-13T13:40:12.303Z,101947.25
2022-11-13T13:42:56.585Z,101944.34
2022-11-13T13:45:34.818Z,101941.66
2022-11-13T13:48:03.552Z,101933.34
2022-11-13T13:50:34.534Z,101927.13
2022-11-13T13:53:04.301Z,101927.97
2022-11-13T13:55:34.888Z,101927.97
2022-11-13T13:58:05.695Z,101935.00
2022-11-13T14:00:33.867Z,101936.69
2022-11-13T14:03:03.283Z,101930.25
2022-11-13T14:05:33.704Z,101935.44
2022-11-13T14:08:07.334Z,101933.56
2022-11-13T14:10:37.513Z,101940.63
2022-11-13T14:13:05.840Z,101927.97
2022-11-13T14:15:35.550Z,101931.47
2022-11-13T14:18:08.381Z,101931.28
2022-11-13T14:20:42.294Z,101930.25
2022-11-13T14:23:14.873Z,101922.16
2022-11-13T14:25:43.361Z,101924.84
2022-11-13T14:28:16.896Z,101921.09
2022-11-13T14:30:45.222Z,101923.81
2022-11-13T14:33:18.521Z,101919.44
2022-11-13T14:35:52.532Z,101916.34
2022-11-13T14:38:24.028Z,101915.28
2022-11-13T14:40:52.038Z,101908.84
2022-11-13T14:43:23.765Z,101905.13
2022-11-13T14:45:57.404Z,101900.56
2022-11-13T14:48:26.990Z,101903.25
2022-11-13T14:50:57.150Z,101905.75
2022-11-13T14:53:31.947Z,101904.91
2022-11-13T14:56:02.460Z,101910.31
2022-11-13T14:58:32.028Z,101910.31
2022-11-13T15:01:00.121Z,101905.94
2022-11-13T15:03:28.644Z,101895.78
2022-11-13T15:05:56.589Z,101899.31
2022-11-13T15:08:24.330Z,101897.44
2022-11-13T15:10:53.661Z,101900.97
2022-11-13T15:13:21.318Z,101896.41
2022-11-13T15:15:50.350Z,101893.72
2022-11-13T15:18:20.670Z,101896.41
2022-11-13T15:20:49.607Z,101898.06
2022-11-13T15:23:17.678Z,101893.72
2022-11-13T15:25:45.410Z,101892.88
2022-11-13T15:28:14.476Z,101891.84
2022-11-13T15:30:42.138Z,101890.19
2022-11-13T15:33:15.247Z,101888.31
2022-11-13T15:35:43.617Z,101885.63
2022-11-13T15:38:11.591Z,101884.56
2022-11-13T15:40:40.186Z,101880.22
2022-11-13T15:43:18.346Z,101870.69
2022-11-13T15:45:45.980Z,101874.81
2022-11-13T15:48:14.403Z,101862.38
2022-11-13T15:50:42.069Z,101866.94
2022-11-13T15:53:12.276Z,101867.97
2022-11-13T15:55:41.854Z,101870.06
2022-11-13T15:58:16.703Z,101865.50
2022-11-13T16:00:46.009Z,101866.53
2022-11-13T16:03:14.050Z,101857.63
2022-11-13T16:05:41.692Z,101850.56
2022-11-13T16:08:13.141Z,101847.88
2022-11-13T16:10:40.782Z,101846.00
2022-11-13T16:13:08.420Z,101841.63
2022-11-13T16:15:37.497Z,101827.31
2022-11-13T16:18:05.670Z,101822.75
2022-11-13T16:20:33.417Z,101830.03
2022-11-13T16:23:01.088Z,101835.41
2022-11-13T16:25:28.929Z,101827.53
2022-11-13T16:27:56.589Z,101830.22
2022-11-13T16:30:25.314Z,101827.75
2022-11-13T16:32:55.189Z,101831.50
2022-11-13T16:35:22.838Z,101828.78
2022-11-13T16:37:50.472Z,101827.13
2022-11-13T16:40:21.209Z,101832.75
2022-11-13T16:42:48.950Z,101829.84
2022-11-13T16:45:16.936Z,101816.56
2022-11-13T16:47:45.257Z,101815.50
2022-11-13T16:50:20.328Z,101810.34
2022-11-13T16:52:48.029Z,101811.16
2022-11-13T16:55:15.980Z,101810.72
2022-11-13T16:57:43.701Z,101808.19
2022-11-13T17:00:16.101Z,101812.28
2022-11-13T17:02:44.474Z,101811.00
2022-11-13T17:05:14.493Z,101816.28
2022-11-13T17:07:43.569Z,101820.13
2022-11-13T17:10:30.674Z,101822.41
2022-11-13T17:13:00.039Z,101818.47
2022-11-13T17:15:27.786Z,101814.16
2022-11-13T17:17:58.165Z,101813.81
2022-11-13T17:20:26.059Z,101810.13
2022-11-13T17:22:55.148Z,101820.09
2022-11-13T17:25:26.351Z,101813.91
2022-11-13T17:27:54.082Z,101814.75
2022-11-13T17:30:21.870Z,101809.19
2022-11-13T17:32:49.526Z,101805.47
2022-11-13T17:35:17.281Z,101796.16
2022-11-13T17:37:44.953Z,101801.97
2022-11-13T17:40:14.290Z,101802.19
2022-11-13T17:42:42.328Z,101797.38
2022-11-13T17:45:11.454Z,101793.38
2022-11-13T17:47:39.338Z,101797.91
2022-11-13T17:50:08.074Z,101792.94
2022-11-13T17:52:35.834Z,101799.34
2022-11-13T17:55:06.065Z,101789.38
2022-11-13T17:57:35.397Z,101784.53
2022-11-13T18:00:03.631Z,101776.78
2022-11-13T18:02:31.341Z,101778.13
2022-11-13T18:05:01.260Z,101773.25
2022-11-13T18:07:29.764Z,101765.84
2022-11-13T18:09:57.647Z,101771.09
2022-11-13T18:12:25.395Z,101768.28
2022-11-13T18:14:54.384Z,101765.69
2022-11-13T18:17:23.121Z,101760.03
2022-11-13T18:19:54.809Z,101764.94
2022-11-13T18:22:26.630Z,101763.88
2022-11-13T18:24:55.222Z,101763.72
2022-11-13T18:27:22.902Z,101761.97
2022-11-13T18:29:50.551Z,101759.25
2022-11-13T18:32:19.613Z,101755.09
2022-11-13T18:34:47.280Z,101759.41
2022-11-13T18:37:14.965Z,101759.72
2022-11-13T18:39:42.672Z,101756.66
2022-11-13T18:42:10.393Z,101750.91
2022-11-13T18:44:38.159Z,101754.28
2022-11-13T18:47:05.868Z,101749.91
2022-11-13T18:49:34.889Z,101744.13
2022-11-13T18:52:02.598Z,101744.78
2022-11-13T18:54:30.317Z,101743.56
2022-11-13T18:56:57.991Z,101738.81
2022-11-13T18:59:25.704Z,101742.97
2022-11-13T19:01:53.445Z,101735.53
2022-11-13T19:04:23.251Z,101733.47
2022-11-13T19:06:53.153Z,101724.53
2022-11-13T19:09:21.032Z,101735.03
2022-11-13T19:11:50.187Z,101720.00
2022-11-13T19:14:19.618Z,101712.41
2022-11-13T19:16:47.472Z,101694.72
2022-11-13T19:19:17.914Z,101709.06
2022-11-13T19:21:46.717Z,101701.88
2022-11-13T19:24:16.156Z,101713.81
2022-11-13T19:26:44.778Z,101708.94
2022-11-13T19:29:12.886Z,101708.56
2022-11-13T19:31:40.683Z,101698.53
2022-11-13T19:34:09.225Z,101702.63
2022-11-13T19:36:37.580Z,101704.00
2022-11-13T19:39:05.945Z,101700.78
2022-11-13T19:41:34.947Z,101692.34
2022-11-13T19:44:02.680Z,101696.38
2022-11-13T19:46:32.020Z,101704.69
2022-11-13T19:48:59.818Z,101693.31
2022-11-13T19:51:27.836Z,101678.44
2022-11-13T19:53:56.503Z,101690.28
2022-11-13T19:56:25.847Z,101680.56
2022-11-13T19:58:55.519Z,101677.69
2022-11-13T20:01:25.691Z,101686.44
2022-11-13T20:03:57.556Z,101686.03
2022-11-13T20:06:26.377Z,101674.03
2022-11-13T20:08:54.089Z,101665.75
2022-11-13T20:11:21.852Z,101668.88
2022-11-13T20:13:49.610Z,101668.25
2022-11-13T20:16:20.892Z,101661.03
2022-11-13T20:18:48.713Z,101663.13
2022-11-13T20:21:16.708Z,101655.44
2022-11-13T20:23:44.862Z,101659.41
2022-11-13T20:26:16.585Z,101659.22
2022-11-13T20:28:44.269Z,101662.97
2022-11-13T20:31:16.409Z,101660.69
2022-11-13T20:33:45.511Z,101655.50
2022-11-13T20:36:13.499Z,101653.03
2022-11-13T20:38:41.345Z,101648.06
2022-11-13T20:41:11.904Z,101652.84
2022-11-13T20:43:39.775Z,101660.31
2022-11-13T20:46:10.167Z,101652.66
2022-11-13T20:48:38.471Z,101649.13
2022-11-13T20:51:09.109Z,101656.59
2022-11-13T20:53:37.002Z,101654.13
2022-11-13T20:56:05.312Z,101649.97
2022-11-13T20:58:32.979Z,101652.69
2022-11-13T21:01:04.895Z,101651.06
2022-11-13T21:03:37.135Z,101643.19
2022-11-13T21:06:09.948Z,101643.38
2022-11-13T21:08:37.836Z,101640.91
2022-11-13T21:11:07.182Z,101641.13
2022-11-13T21:13:35.431Z,101641.34
2022-11-13T21:16:06.023Z,101638.03
2022-11-13T21:18:33.748Z,101637.41
2022-11-13T21:21:06.102Z,101627.88
2022-11-13T21:23:35.276Z,101626.44
2022-11-13T21:26:04.337Z,101617.53
2022-11-13T21:28:33.675Z,101604.50
2022-11-13T21:31:03.229Z,101610.09
2022-11-13T21:33:31.265Z,101609.06
2022-11-13T21:36:05.407Z,101593.53
2022-11-13T21:38:33.356Z,101600.78
2022-11-13T21:41:21.510Z,101597.88
2022-11-13T21:43:49.265Z,101590.22
2022-11-13T21:46:17.484Z,101595.19
2022-11-13T21:48:45.513Z,101595.19
2022-11-13T21:51:13.948Z,101583.78
2022-11-13T21:53:42.817Z,101589.19
2022-11-13T21:56:15.718Z,101576.97
2022-11-13T21:58:44.249Z,101578.84
2022-11-13T22:01:13.167Z,101572.63
2022-11-13T22:03:41.597Z,101570.97
2022-11-13T22:06:13.923Z,101564.13
2022-11-13T22:08:42.037Z,101557.09
2022-11-13T22:11:12.039Z,101552.75
2022-11-13T22:13:40.096Z,101544.47
2022-11-13T22:16:09.565Z,101546.75
2022-11-13T22:18:37.227Z,101541.56
2022-11-13T22:21:06.461Z,101537.22
2022-11-13T22:23:34.546Z,101534.53
2022-11-13T22:26:03.047Z,101535.56
2022-11-13T22:28:33.562Z,101530.19
2022-11-13T22:31:01.392Z,101526.66
2022-11-13T22:33:30.440Z,101526.06
2022-11-13T22:36:02.769Z,101531.44
2022-11-13T22:38:30.874Z,101533.50
2022-11-13T22:41:04.109Z,101532.47
2022-11-13T22:43:37.935Z,101536.81
2022-11-13T22:46:07.544Z,101532.47
2022-11-13T22:48:36.216Z,101530.81
2022-11-13T22:51:06.047Z,101527.09
2022-11-13T22:53:33.749Z,101524.81
2022-11-13T22:56:02.843Z,101524.00
2022-11-13T22:58:30.845Z,101535.59
2022-11-13T23:01:06.476Z,101531.25
2022-11-13T23:03:37.589Z,101522.97
2022-11-13T23:06:05.943Z,101519.88
2022-11-13T23:08:38.551Z,101512.00
2022-11-13T23:11:07.471Z,101513.03
2022-11-13T23:13:35.294Z,101514.91
2022-11-13T23:16:03.421Z,101510.56
2022-11-13T23:18:33.334Z,101507.03
2022-11-13T23:21:00.981Z,101504.78
2022-11-13T23:23:28.665Z,101503.94
2022-11-13T23:25:56.359Z,101496.91
2022-11-13T23:28:24.062Z,101488.00
2022-11-13T23:30:51.869Z,101489.88
2022-11-13T23:33:19.566Z,101484.91
2022-11-13T23:35:49.246Z,101480.56
2022-11-13T23:38:17.174Z,101478.09
2022-11-13T23:40:44.902Z,101469.00
2022-11-13T23:43:13.046Z,101472.31
2022-11-13T23:45:40.741Z,101477.06
2022-11-13T23:48:08.394Z,101470.03
2022-11-13T23:50:36.026Z,101474.78
2022-11-13T23:53:05.498Z,101471.91
2022-11-13T23:55:33.335Z,101468.81
2022-11-13T23:58:02.309Z,101461.34
